sensor_id;sensor_type;location;lat;lon;timestamp;P1;durP1;ratioP1;P2;durP2;ratioP2
38693;SDS011;24447;43.460;25.744;2022-07-19T00:02:00;3.58;;;2.22;;
38693;SDS011;24447;43.460;25.744;2022-07-19T00:04:26;5.43;;;2.47;;
38693;SDS011;24447;43.460;25.744;2022-07-19T00:06:52;3.25;;;2.17;;
38693;SDS011;24447;43.460;25.744;2022-07-19T00:09:20;4.70;;;2.33;;
38693;SDS011;24447;43.460;25.744;2022-07-19T00:11:46;5.68;;;2.22;;
38693;SDS011;24447;43.460;25.744;2022-07-19T00:14:12;7.38;;;2.90;;
38693;SDS011;24447;43.460;25.744;2022-07-19T00:16:38;3.80;;;1.98;;
38693;SDS011;24447;43.460;25.744;2022-07-19T00:19:04;7.72;;;2.35;;
38693;SDS011;24447;43.460;25.744;2022-07-19T00:21:30;4.65;;;2.10;;
38693;SDS011;24447;43.460;25.744;2022-07-19T00:23:56;8.70;;;2.40;;
38693;SDS011;24447;43.460;25.744;2022-07-19T00:26:22;2.38;;;1.73;;
38693;SDS011;24447;43.460;25.744;2022-07-19T00:28:48;5.60;;;2.75;;
38693;SDS011;24447;43.460;25.744;2022-07-19T00:31:14;13.13;;;3.45;;
38693;SDS011;24447;43.460;25.744;2022-07-19T00:33:40;6.85;;;2.28;;
38693;SDS011;24447;43.460;25.744;2022-07-19T00:36:06;7.55;;;2.47;;
38693;SDS011;24447;43.460;25.744;2022-07-19T00:38:32;11.18;;;2.30;;
38693;SDS011;24447;43.460;25.744;2022-07-19T00:41:00;4.72;;;2.22;;
38693;SDS011;24447;43.460;25.744;2022-07-19T00:43:27;5.15;;;2.22;;
38693;SDS011;24447;43.460;25.744;2022-07-19T00:45:53;7.47;;;2.25;;
38693;SDS011;24447;43.460;25.744;2022-07-19T00:48:19;5.00;;;2.55;;
38693;SDS011;24447;43.460;25.744;2022-07-19T00:50:45;5.07;;;2.70;;
38693;SDS011;24447;43.460;25.744;2022-07-19T00:53:11;3.60;;;2.40;;
38693;SDS011;24447;43.460;25.744;2022-07-19T00:55:37;8.35;;;2.63;;
38693;SDS011;24447;43.460;25.744;2022-07-19T00:58:05;5.75;;;3.00;;
38693;SDS011;24447;43.460;25.744;2022-07-19T01:00:32;3.83;;;2.72;;
38693;SDS011;24447;43.460;25.744;2022-07-19T01:02:59;3.80;;;2.28;;
38693;SDS011;24447;43.460;25.744;2022-07-19T01:05:26;5.05;;;2.72;;
38693;SDS011;24447;43.460;25.744;2022-07-19T01:07:52;5.70;;;2.13;;
38693;SDS011;24447;43.460;25.744;2022-07-19T01:10:18;5.28;;;2.58;;
38693;SDS011;24447;43.460;25.744;2022-07-19T01:12:44;5.55;;;2.28;;
38693;SDS011;24447;43.460;25.744;2022-07-19T01:15:20;4.85;;;2.15;;
38693;SDS011;24447;43.460;25.744;2022-07-19T01:17:48;3.90;;;2.42;;
38693;SDS011;24447;43.460;25.744;2022-07-19T01:20:15;6.75;;;2.42;;
38693;SDS011;24447;43.460;25.744;2022-07-19T01:22:41;5.88;;;2.65;;
38693;SDS011;24447;43.460;25.744;2022-07-19T01:25:08;5.53;;;2.58;;
38693;SDS011;24447;43.460;25.744;2022-07-19T01:27:38;5.38;;;3.08;;
38693;SDS011;24447;43.460;25.744;2022-07-19T01:30:09;8.82;;;2.58;;
38693;SDS011;24447;43.460;25.744;2022-07-19T01:32:39;4.13;;;2.25;;
38693;SDS011;24447;43.460;25.744;2022-07-19T01:35:06;5.78;;;2.30;;
38693;SDS011;24447;43.460;25.744;2022-07-19T01:37:33;6.88;;;2.90;;
38693;SDS011;24447;43.460;25.744;2022-07-19T01:40:00;2.83;;;2.20;;
38693;SDS011;24447;43.460;25.744;2022-07-19T01:42:27;7.20;;;2.75;;
38693;SDS011;24447;43.460;25.744;2022-07-19T01:44:53;5.30;;;2.78;;
38693;SDS011;24447;43.460;25.744;2022-07-19T01:47:19;4.00;;;2.63;;
38693;SDS011;24447;43.460;25.744;2022-07-19T01:49:45;4.68;;;2.65;;
38693;SDS011;24447;43.460;25.744;2022-07-19T01:52:11;4.30;;;2.53;;
38693;SDS011;24447;43.460;25.744;2022-07-19T01:54:37;6.07;;;2.20;;
38693;SDS011;24447;43.460;25.744;2022-07-19T01:57:03;9.90;;;2.78;;
38693;SDS011;24447;43.460;25.744;2022-07-19T01:59:29;5.72;;;2.60;;
38693;SDS011;24447;43.460;25.744;2022-07-19T02:01:55;4.00;;;2.95;;
38693;SDS011;24447;43.460;25.744;2022-07-19T02:04:21;5.90;;;2.80;;
38693;SDS011;24447;43.460;25.744;2022-07-19T02:06:47;5.35;;;2.60;;
38693;SDS011;24447;43.460;25.744;2022-07-19T02:09:13;4.53;;;2.58;;
38693;SDS011;24447;43.460;25.744;2022-07-19T02:11:38;3.45;;;2.20;;
38693;SDS011;24447;43.460;25.744;2022-07-19T02:14:06;6.18;;;2.47;;
38693;SDS011;24447;43.460;25.744;2022-07-19T02:16:34;6.47;;;2.25;;
38693;SDS011;24447;43.460;25.744;2022-07-19T02:19:00;4.72;;;2.33;;
38693;SDS011;24447;43.460;25.744;2022-07-19T02:21:27;6.57;;;2.80;;
38693;SDS011;24447;43.460;25.744;2022-07-19T02:23:53;4.53;;;2.95;;
38693;SDS011;24447;43.460;25.744;2022-07-19T02:26:19;5.22;;;2.47;;
38693;SDS011;24447;43.460;25.744;2022-07-19T02:28:44;5.50;;;2.85;;
38693;SDS011;24447;43.460;25.744;2022-07-19T02:31:10;4.05;;;2.70;;
38693;SDS011;24447;43.460;25.744;2022-07-19T02:33:36;6.25;;;2.60;;
38693;SDS011;24447;43.460;25.744;2022-07-19T02:36:02;7.47;;;2.47;;
38693;SDS011;24447;43.460;25.744;2022-07-19T02:38:31;4.05;;;2.60;;
38693;SDS011;24447;43.460;25.744;2022-07-19T02:40:58;4.07;;;2.47;;
38693;SDS011;24447;43.460;25.744;2022-07-19T02:43:24;8.65;;;2.80;;
38693;SDS011;24447;43.460;25.744;2022-07-19T02:45:50;4.28;;;2.45;;
38693;SDS011;24447;43.460;25.744;2022-07-19T02:48:16;4.20;;;2.78;;
38693;SDS011;24447;43.460;25.744;2022-07-19T02:50:42;7.80;;;2.85;;
38693;SDS011;24447;43.460;25.744;2022-07-19T02:53:08;5.03;;;2.08;;
38693;SDS011;24447;43.460;25.744;2022-07-19T02:55:34;6.88;;;2.97;;
38693;SDS011;24447;43.460;25.744;2022-07-19T02:58:00;5.35;;;2.63;;
38693;SDS011;24447;43.460;25.744;2022-07-19T03:00:26;6.75;;;2.78;;
38693;SDS011;24447;43.460;25.744;2022-07-19T03:02:52;5.95;;;2.53;;
38693;SDS011;24447;43.460;25.744;2022-07-19T03:05:18;6.93;;;2.80;;
38693;SDS011;24447;43.460;25.744;2022-07-19T03:07:45;4.22;;;2.85;;
38693;SDS011;24447;43.460;25.744;2022-07-19T03:10:11;8.35;;;2.90;;
38693;SDS011;24447;43.460;25.744;2022-07-19T03:12:37;4.80;;;2.38;;
38693;SDS011;24447;43.460;25.744;2022-07-19T03:15:03;4.68;;;2.75;;
38693;SDS011;24447;43.460;25.744;2022-07-19T03:17:29;6.60;;;2.85;;
38693;SDS011;24447;43.460;25.744;2022-07-19T03:19:56;12.90;;;2.80;;
38693;SDS011;24447;43.460;25.744;2022-07-19T03:22:21;11.82;;;4.05;;
38693;SDS011;24447;43.460;25.744;2022-07-19T03:24:48;9.32;;;2.97;;
38693;SDS011;24447;43.460;25.744;2022-07-19T03:27:14;10.63;;;3.63;;
38693;SDS011;24447;43.460;25.744;2022-07-19T03:29:40;21.10;;;4.43;;
38693;SDS011;24447;43.460;25.744;2022-07-19T03:32:05;7.35;;;3.38;;
38693;SDS011;24447;43.460;25.744;2022-07-19T03:34:31;11.90;;;3.17;;
38693;SDS011;24447;43.460;25.744;2022-07-19T03:36:57;8.38;;;2.97;;
38693;SDS011;24447;43.460;25.744;2022-07-19T03:39:23;8.60;;;3.70;;
38693;SDS011;24447;43.460;25.744;2022-07-19T03:41:49;4.22;;;2.70;;
38693;SDS011;24447;43.460;25.744;2022-07-19T03:44:15;4.35;;;2.90;;
38693;SDS011;24447;43.460;25.744;2022-07-19T03:46:41;7.88;;;3.00;;
38693;SDS011;24447;43.460;25.744;2022-07-19T03:49:07;5.75;;;2.55;;
38693;SDS011;24447;43.460;25.744;2022-07-19T03:51:33;7.45;;;2.88;;
38693;SDS011;24447;43.460;25.744;2022-07-19T03:53:59;8.75;;;3.28;;
38693;SDS011;24447;43.460;25.744;2022-07-19T03:56:24;7.65;;;2.95;;
38693;SDS011;24447;43.460;25.744;2022-07-19T03:58:50;7.18;;;3.00;;
38693;SDS011;24447;43.460;25.744;2022-07-19T04:01:16;4.25;;;2.03;;
38693;SDS011;24447;43.460;25.744;2022-07-19T04:03:42;5.53;;;2.45;;
38693;SDS011;24447;43.460;25.744;2022-07-19T04:06:09;3.33;;;2.05;;
38693;SDS011;24447;43.460;25.744;2022-07-19T04:08:36;3.08;;;2.30;;
38693;SDS011;24447;43.460;25.744;2022-07-19T04:11:03;7.53;;;2.47;;
38693;SDS011;24447;43.460;25.744;2022-07-19T04:13:31;11.88;;;2.58;;
38693;SDS011;24447;43.460;25.744;2022-07-19T04:15:58;8.02;;;2.63;;
38693;SDS011;24447;43.460;25.744;2022-07-19T04:18:24;13.90;;;2.60;;
38693;SDS011;24447;43.460;25.744;2022-07-19T04:20:49;7.50;;;2.25;;
38693;SDS011;24447;43.460;25.744;2022-07-19T04:23:15;4.35;;;2.70;;
38693;SDS011;24447;43.460;25.744;2022-07-19T04:25:41;3.85;;;2.03;;
38693;SDS011;24447;43.460;25.744;2022-07-19T04:28:07;4.93;;;2.38;;
38693;SDS011;24447;43.460;25.744;2022-07-19T04:30:33;7.82;;;2.45;;
38693;SDS011;24447;43.460;25.744;2022-07-19T04:32:59;10.10;;;3.30;;
38693;SDS011;24447;43.460;25.744;2022-07-19T04:35:25;5.90;;;2.00;;
38693;SDS011;24447;43.460;25.744;2022-07-19T04:37:51;6.00;;;2.08;;
38693;SDS011;24447;43.460;25.744;2022-07-19T04:40:17;4.95;;;2.50;;
38693;SDS011;24447;43.460;25.744;2022-07-19T04:42:43;6.03;;;2.50;;
38693;SDS011;24447;43.460;25.744;2022-07-19T04:45:09;7.05;;;2.55;;
38693;SDS011;24447;43.460;25.744;2022-07-19T04:47:35;5.07;;;2.60;;
38693;SDS011;24447;43.460;25.744;2022-07-19T04:50:02;8.60;;;2.60;;
38693;SDS011;24447;43.460;25.744;2022-07-19T04:52:28;4.13;;;2.40;;
38693;SDS011;24447;43.460;25.744;2022-07-19T04:54:54;9.98;;;2.88;;
38693;SDS011;24447;43.460;25.744;2022-07-19T04:57:20;8.15;;;2.70;;
38693;SDS011;24447;43.460;25.744;2022-07-19T04:59:48;4.25;;;2.60;;
38693;SDS011;24447;43.460;25.744;2022-07-19T05:02:14;7.38;;;2.92;;
38693;SDS011;24447;43.460;25.744;2022-07-19T05:04:40;13.00;;;2.75;;
38693;SDS011;24447;43.460;25.744;2022-07-19T05:07:06;9.55;;;2.78;;
38693;SDS011;24447;43.460;25.744;2022-07-19T05:09:32;4.22;;;3.00;;
38693;SDS011;24447;43.460;25.744;2022-07-19T05:11:58;10.88;;;3.25;;
38693;SDS011;24447;43.460;25.744;2022-07-19T05:14:25;9.25;;;4.10;;
38693;SDS011;24447;43.460;25.744;2022-07-19T05:16:51;13.63;;;4.93;;
38693;SDS011;24447;43.460;25.744;2022-07-19T05:19:17;12.43;;;4.70;;
38693;SDS011;24447;43.460;25.744;2022-07-19T05:21:43;11.82;;;4.18;;
38693;SDS011;24447;43.460;25.744;2022-07-19T05:24:09;15.18;;;4.38;;
38693;SDS011;24447;43.460;25.744;2022-07-19T05:26:35;12.65;;;4.03;;
38693;SDS011;24447;43.460;25.744;2022-07-19T05:29:03;8.40;;;4.38;;
38693;SDS011;24447;43.460;25.744;2022-07-19T05:31:29;13.13;;;5.32;;
38693;SDS011;24447;43.460;25.744;2022-07-19T05:33:55;14.18;;;5.43;;
38693;SDS011;24447;43.460;25.744;2022-07-19T05:36:21;16.05;;;5.85;;
38693;SDS011;24447;43.460;25.744;2022-07-19T05:38:47;11.65;;;4.70;;
38693;SDS011;24447;43.460;25.744;2022-07-19T05:41:13;11.13;;;3.97;;
38693;SDS011;24447;43.460;25.744;2022-07-19T05:43:41;9.93;;;3.45;;
38693;SDS011;24447;43.460;25.744;2022-07-19T05:46:07;7.75;;;3.20;;
38693;SDS011;24447;43.460;25.744;2022-07-19T05:48:34;11.05;;;3.33;;
38693;SDS011;24447;43.460;25.744;2022-07-19T05:51:01;8.50;;;2.92;;
38693;SDS011;24447;43.460;25.744;2022-07-19T05:53:27;4.90;;;2.67;;
38693;SDS011;24447;43.460;25.744;2022-07-19T05:55:53;10.10;;;2.88;;
38693;SDS011;24447;43.460;25.744;2022-07-19T05:58:19;9.63;;;3.05;;
38693;SDS011;24447;43.460;25.744;2022-07-19T06:00:46;8.07;;;2.70;;
38693;SDS011;24447;43.460;25.744;2022-07-19T06:03:31;7.55;;;2.97;;
38693;SDS011;24447;43.460;25.744;2022-07-19T06:05:57;7.80;;;2.38;;
38693;SDS011;24447;43.460;25.744;2022-07-19T06:08:23;6.90;;;2.53;;
38693;SDS011;24447;43.460;25.744;2022-07-19T06:10:49;22.73;;;4.85;;
38693;SDS011;24447;43.460;25.744;2022-07-19T06:13:15;8.20;;;2.97;;
38693;SDS011;24447;43.460;25.744;2022-07-19T06:15:41;4.60;;;2.35;;
38693;SDS011;24447;43.460;25.744;2022-07-19T06:18:07;7.93;;;2.75;;
38693;SDS011;24447;43.460;25.744;2022-07-19T06:20:33;14.88;;;2.72;;
38693;SDS011;24447;43.460;25.744;2022-07-19T06:22:59;5.90;;;2.75;;
38693;SDS011;24447;43.460;25.744;2022-07-19T06:25:25;6.90;;;2.70;;
38693;SDS011;24447;43.460;25.744;2022-07-19T06:27:51;5.45;;;2.60;;
38693;SDS011;24447;43.460;25.744;2022-07-19T06:30:17;9.90;;;2.40;;
38693;SDS011;24447;43.460;25.744;2022-07-19T06:32:43;7.00;;;2.47;;
38693;SDS011;24447;43.460;25.744;2022-07-19T06:35:09;6.55;;;2.47;;
38693;SDS011;24447;43.460;25.744;2022-07-19T06:37:35;3.50;;;2.10;;
38693;SDS011;24447;43.460;25.744;2022-07-19T06:40:01;7.10;;;2.85;;
38693;SDS011;24447;43.460;25.744;2022-07-19T06:42:28;8.07;;;2.20;;
38693;SDS011;24447;43.460;25.744;2022-07-19T06:44:53;4.88;;;2.13;;
38693;SDS011;24447;43.460;25.744;2022-07-19T06:47:19;8.38;;;2.15;;
38693;SDS011;24447;43.460;25.744;2022-07-19T06:49:45;13.02;;;3.50;;
38693;SDS011;24447;43.460;25.744;2022-07-19T06:52:11;5.07;;;2.00;;
38693;SDS011;24447;43.460;25.744;2022-07-19T06:54:37;4.50;;;2.00;;
38693;SDS011;24447;43.460;25.744;2022-07-19T06:57:03;6.70;;;2.60;;
38693;SDS011;24447;43.460;25.744;2022-07-19T06:59:31;11.60;;;3.05;;
38693;SDS011;24447;43.460;25.744;2022-07-19T07:01:57;8.00;;;2.60;;
38693;SDS011;24447;43.460;25.744;2022-07-19T07:04:23;7.05;;;2.22;;
38693;SDS011;24447;43.460;25.744;2022-07-19T07:06:49;4.35;;;2.28;;
38693;SDS011;24447;43.460;25.744;2022-07-19T07:09:15;5.68;;;2.22;;
38693;SDS011;24447;43.460;25.744;2022-07-19T07:11:41;6.25;;;2.97;;
38693;SDS011;24447;43.460;25.744;2022-07-19T07:14:06;9.45;;;2.75;;
38693;SDS011;24447;43.460;25.744;2022-07-19T07:16:33;10.60;;;2.47;;
38693;SDS011;24447;43.460;25.744;2022-07-19T07:18:59;5.22;;;2.65;;
38693;SDS011;24447;43.460;25.744;2022-07-19T07:21:25;6.15;;;3.30;;
38693;SDS011;24447;43.460;25.744;2022-07-19T07:23:51;9.43;;;3.10;;
38693;SDS011;24447;43.460;25.744;2022-07-19T07:26:17;3.45;;;2.40;;
38693;SDS011;24447;43.460;25.744;2022-07-19T07:28:43;11.82;;;2.67;;
38693;SDS011;24447;43.460;25.744;2022-07-19T07:31:09;10.50;;;2.83;;
38693;SDS011;24447;43.460;25.744;2022-07-19T07:33:35;6.15;;;2.33;;
38693;SDS011;24447;43.460;25.744;2022-07-19T07:36:01;10.27;;;2.30;;
38693;SDS011;24447;43.460;25.744;2022-07-19T07:38:27;10.63;;;2.97;;
38693;SDS011;24447;43.460;25.744;2022-07-19T07:40:53;4.97;;;2.33;;
38693;SDS011;24447;43.460;25.744;2022-07-19T07:43:19;4.70;;;2.22;;
38693;SDS011;24447;43.460;25.744;2022-07-19T07:45:44;8.15;;;2.60;;
38693;SDS011;24447;43.460;25.744;2022-07-19T07:48:11;13.07;;;2.75;;
38693;SDS011;24447;43.460;25.744;2022-07-19T07:50:37;9.93;;;2.53;;
38693;SDS011;24447;43.460;25.744;2022-07-19T07:53:02;7.30;;;2.30;;
38693;SDS011;24447;43.460;25.744;2022-07-19T07:55:28;2.80;;;2.10;;
38693;SDS011;24447;43.460;25.744;2022-07-19T07:57:54;4.70;;;1.80;;
38693;SDS011;24447;43.460;25.744;2022-07-19T08:00:20;22.98;;;3.08;;
38693;SDS011;24447;43.460;25.744;2022-07-19T08:02:46;9.25;;;2.70;;
38693;SDS011;24447;43.460;25.744;2022-07-19T08:05:14;3.90;;;2.10;;
38693;SDS011;24447;43.460;25.744;2022-07-19T08:07:41;4.60;;;1.90;;
38693;SDS011;24447;43.460;25.744;2022-07-19T08:10:07;3.90;;;1.50;;
38693;SDS011;24447;43.460;25.744;2022-07-19T08:12:34;1.65;;;1.23;;
38693;SDS011;24447;43.460;25.744;2022-07-19T08:15:00;6.55;;;1.48;;
38693;SDS011;24447;43.460;25.744;2022-07-19T08:17:26;3.10;;;1.30;;
38693;SDS011;24447;43.460;25.744;2022-07-19T08:19:52;2.13;;;0.95;;
38693;SDS011;24447;43.460;25.744;2022-07-19T08:22:18;2.83;;;1.65;;
38693;SDS011;24447;43.460;25.744;2022-07-19T08:24:44;5.95;;;1.65;;
38693;SDS011;24447;43.460;25.744;2022-07-19T08:27:10;1.95;;;1.20;;
38693;SDS011;24447;43.460;25.744;2022-07-19T08:29:36;4.70;;;1.80;;
38693;SDS011;24447;43.460;25.744;2022-07-19T08:32:02;7.30;;;2.05;;
38693;SDS011;24447;43.460;25.744;2022-07-19T08:34:28;4.45;;;1.70;;
38693;SDS011;24447;43.460;25.744;2022-07-19T08:36:54;5.40;;;2.03;;
38693;SDS011;24447;43.460;25.744;2022-07-19T08:39:21;6.38;;;1.85;;
38693;SDS011;24447;43.460;25.744;2022-07-19T08:41:47;3.00;;;1.45;;
38693;SDS011;24447;43.460;25.744;2022-07-19T08:44:13;4.18;;;1.70;;
38693;SDS011;24447;43.460;25.744;2022-07-19T08:46:43;2.67;;;1.50;;
38693;SDS011;24447;43.460;25.744;2022-07-19T08:49:09;2.95;;;1.60;;
38693;SDS011;24447;43.460;25.744;2022-07-19T08:51:35;3.50;;;1.80;;
38693;SDS011;24447;43.460;25.744;2022-07-19T08:54:02;3.45;;;1.77;;
38693;SDS011;24447;43.460;25.744;2022-07-19T08:56:28;3.20;;;1.25;;
38693;SDS011;24447;43.460;25.744;2022-07-19T08:59:13;3.28;;;1.48;;
38693;SDS011;24447;43.460;25.744;2022-07-19T09:01:39;5.93;;;1.73;;
38693;SDS011;24447;43.460;25.744;2022-07-19T09:04:13;3.83;;;1.58;;
38693;SDS011;24447;43.460;25.744;2022-07-19T09:06:40;5.28;;;2.33;;
38693;SDS011;24447;43.460;25.744;2022-07-19T09:09:20;1.65;;;1.40;;
38693;SDS011;24447;43.460;25.744;2022-07-19T09:11:48;4.28;;;1.60;;
38693;SDS011;24447;43.460;25.744;2022-07-19T09:14:17;5.57;;;2.17;;
38693;SDS011;24447;43.460;25.744;2022-07-19T09:16:48;4.55;;;1.90;;
38693;SDS011;24447;43.460;25.744;2022-07-19T09:19:14;4.78;;;1.60;;
38693;SDS011;24447;43.460;25.744;2022-07-19T09:21:50;2.33;;;1.52;;
38693;SDS011;24447;43.460;25.744;2022-07-19T09:24:17;1.67;;;1.58;;
38693;SDS011;24447;43.460;25.744;2022-07-19T09:29:35;2.13;;;1.42;;
38693;SDS011;24447;43.460;25.744;2022-07-19T09:32:10;5.15;;;1.85;;
38693;SDS011;24447;43.460;25.744;2022-07-19T09:37:25;4.55;;;1.52;;
38693;SDS011;24447;43.460;25.744;2022-07-19T09:39:53;2.92;;;1.65;;
38693;SDS011;24447;43.460;25.744;2022-07-19T09:42:24;3.05;;;1.75;;
38693;SDS011;24447;43.460;25.744;2022-07-19T09:45:04;4.35;;;1.77;;
38693;SDS011;24447;43.460;25.744;2022-07-19T09:47:32;3.85;;;1.63;;
38693;SDS011;24447;43.460;25.744;2022-07-19T09:50:04;2.08;;;1.35;;
38693;SDS011;24447;43.460;25.744;2022-07-19T09:52:40;4.10;;;1.58;;
38693;SDS011;24447;43.460;25.744;2022-07-19T09:55:07;3.10;;;1.77;;
38693;SDS011;24447;43.460;25.744;2022-07-19T09:57:35;2.15;;;1.40;;
38693;SDS011;24447;43.460;25.744;2022-07-19T10:00:03;2.00;;;1.63;;
38693;SDS011;24447;43.460;25.744;2022-07-19T10:02:31;4.75;;;1.48;;
38693;SDS011;24447;43.460;25.744;2022-07-19T10:05:01;5.53;;;1.70;;
38693;SDS011;24447;43.460;25.744;2022-07-19T10:07:28;3.53;;;1.73;;
38693;SDS011;24447;43.460;25.744;2022-07-19T10:09:54;4.65;;;2.40;;
38693;SDS011;24447;43.460;25.744;2022-07-19T10:12:20;2.72;;;1.40;;
38693;SDS011;24447;43.460;25.744;2022-07-19T10:14:47;2.33;;;1.60;;
38693;SDS011;24447;43.460;25.744;2022-07-19T10:19:42;3.38;;;1.65;;
38693;SDS011;24447;43.460;25.744;2022-07-19T10:22:17;6.00;;;1.95;;
38693;SDS011;24447;43.460;25.744;2022-07-19T10:24:59;4.50;;;1.92;;
38693;SDS011;24447;43.460;25.744;2022-07-19T10:27:37;2.88;;;1.80;;
38693;SDS011;24447;43.460;25.744;2022-07-19T10:32:38;3.13;;;2.05;;
38693;SDS011;24447;43.460;25.744;2022-07-19T10:35:18;2.63;;;1.65;;
38693;SDS011;24447;43.460;25.744;2022-07-19T10:43:19;5.18;;;2.13;;
38693;SDS011;24447;43.460;25.744;2022-07-19T10:48:34;2.25;;;1.60;;
38693;SDS011;24447;43.460;25.744;2022-07-19T10:51:01;2.25;;;2.05;;
38693;SDS011;24447;43.460;25.744;2022-07-19T10:56:19;3.85;;;1.95;;
38693;SDS011;24447;43.460;25.744;2022-07-19T10:58:51;5.07;;;1.95;;
38693;SDS011;24447;43.460;25.744;2022-07-19T11:01:28;6.68;;;2.15;;
38693;SDS011;24447;43.460;25.744;2022-07-19T11:07:09;3.80;;;1.98;;
38693;SDS011;24447;43.460;25.744;2022-07-19T11:09:44;8.00;;;2.00;;
38693;SDS011;24447;43.460;25.744;2022-07-19T11:12:25;3.60;;;2.20;;
38693;SDS011;24447;43.460;25.744;2022-07-19T11:14:51;5.00;;;2.08;;
38693;SDS011;24447;43.460;25.744;2022-07-19T11:17:18;5.75;;;2.20;;
38693;SDS011;24447;43.460;25.744;2022-07-19T11:22:45;5.20;;;2.13;;
38693;SDS011;24447;43.460;25.744;2022-07-19T11:25:13;4.60;;;1.52;;
38693;SDS011;24447;43.460;25.744;2022-07-19T11:27:40;8.02;;;2.97;;
38693;SDS011;24447;43.460;25.744;2022-07-19T11:30:07;7.18;;;2.30;;
38693;SDS011;24447;43.460;25.744;2022-07-19T11:32:34;6.07;;;2.72;;
38693;SDS011;24447;43.460;25.744;2022-07-19T11:35:04;3.40;;;2.08;;
38693;SDS011;24447;43.460;25.744;2022-07-19T11:37:35;4.50;;;2.70;;
38693;SDS011;24447;43.460;25.744;2022-07-19T11:40:04;10.80;;;2.25;;
38693;SDS011;24447;43.460;25.744;2022-07-19T11:42:32;4.53;;;2.40;;
38693;SDS011;24447;43.460;25.744;2022-07-19T11:44:59;5.03;;;2.30;;
38693;SDS011;24447;43.460;25.744;2022-07-19T11:47:33;2.80;;;1.90;;
38693;SDS011;24447;43.460;25.744;2022-07-19T11:50:06;5.10;;;2.60;;
38693;SDS011;24447;43.460;25.744;2022-07-19T11:55:08;6.18;;;2.03;;
38693;SDS011;24447;43.460;25.744;2022-07-19T11:57:35;6.53;;;2.45;;
38693;SDS011;24447;43.460;25.744;2022-07-19T12:00:01;4.40;;;2.28;;
38693;SDS011;24447;43.460;25.744;2022-07-19T12:02:28;7.75;;;2.22;;
38693;SDS011;24447;43.460;25.744;2022-07-19T12:04:55;4.95;;;2.38;;
38693;SDS011;24447;43.460;25.744;2022-07-19T12:07:20;3.13;;;2.35;;
38693;SDS011;24447;43.460;25.744;2022-07-19T12:09:46;3.90;;;2.13;;
38693;SDS011;24447;43.460;25.744;2022-07-19T12:12:16;5.28;;;2.25;;
38693;SDS011;24447;43.460;25.744;2022-07-19T12:14:43;6.35;;;2.60;;
38693;SDS011;24447;43.460;25.744;2022-07-19T12:17:10;3.25;;;2.17;;
38693;SDS011;24447;43.460;25.744;2022-07-19T12:19:43;9.88;;;2.58;;
38693;SDS011;24447;43.460;25.744;2022-07-19T12:24:55;5.25;;;2.28;;
38693;SDS011;24447;43.460;25.744;2022-07-19T12:27:22;4.85;;;2.10;;
38693;SDS011;24447;43.460;25.744;2022-07-19T12:35:04;4.18;;;2.20;;
38693;SDS011;24447;43.460;25.744;2022-07-19T12:37:38;5.60;;;2.15;;
38693;SDS011;24447;43.460;25.744;2022-07-19T12:45:33;8.20;;;2.40;;
38693;SDS011;24447;43.460;25.744;2022-07-19T12:48:02;4.78;;;2.20;;
38693;SDS011;24447;43.460;25.744;2022-07-19T12:50:29;6.18;;;2.17;;
38693;SDS011;24447;43.460;25.744;2022-07-19T12:52:58;3.95;;;1.88;;
38693;SDS011;24447;43.460;25.744;2022-07-19T12:55:25;6.65;;;3.08;;
38693;SDS011;24447;43.460;25.744;2022-07-19T12:57:53;4.03;;;1.70;;
38693;SDS011;24447;43.460;25.744;2022-07-19T13:00:20;6.10;;;1.60;;
38693;SDS011;24447;43.460;25.744;2022-07-19T13:02:48;3.90;;;1.92;;
38693;SDS011;24447;43.460;25.744;2022-07-19T13:05:15;1.80;;;1.58;;
38693;SDS011;24447;43.460;25.744;2022-07-19T13:07:41;3.25;;;1.45;;
38693;SDS011;24447;43.460;25.744;2022-07-19T13:10:07;2.55;;;1.98;;
38693;SDS011;24447;43.460;25.744;2022-07-19T13:12:35;4.95;;;2.10;;
38693;SDS011;24447;43.460;25.744;2022-07-19T13:15:01;6.10;;;1.85;;
38693;SDS011;24447;43.460;25.744;2022-07-19T13:17:29;2.28;;;1.80;;
38693;SDS011;24447;43.460;25.744;2022-07-19T13:19:55;4.20;;;2.00;;
38693;SDS011;24447;43.460;25.744;2022-07-19T13:22:21;6.03;;;1.85;;
38693;SDS011;24447;43.460;25.744;2022-07-19T13:24:47;4.10;;;1.98;;
38693;SDS011;24447;43.460;25.744;2022-07-19T13:27:13;4.70;;;2.80;;
38693;SDS011;24447;43.460;25.744;2022-07-19T13:29:41;4.15;;;1.75;;
38693;SDS011;24447;43.460;25.744;2022-07-19T13:32:07;6.15;;;1.80;;
38693;SDS011;24447;43.460;25.744;2022-07-19T13:34:35;3.25;;;1.98;;
38693;SDS011;24447;43.460;25.744;2022-07-19T13:37:01;9.68;;;2.22;;
38693;SDS011;24447;43.460;25.744;2022-07-19T13:39:28;5.18;;;2.63;;
38693;SDS011;24447;43.460;25.744;2022-07-19T13:41:54;8.07;;;2.33;;
38693;SDS011;24447;43.460;25.744;2022-07-19T13:44:20;3.08;;;1.77;;
38693;SDS011;24447;43.460;25.744;2022-07-19T13:46:46;3.67;;;1.48;;
38693;SDS011;24447;43.460;25.744;2022-07-19T13:49:12;3.67;;;1.90;;
38693;SDS011;24447;43.460;25.744;2022-07-19T13:51:38;2.72;;;1.73;;
38693;SDS011;24447;43.460;25.744;2022-07-19T13:54:04;2.28;;;2.08;;
38693;SDS011;24447;43.460;25.744;2022-07-19T13:56:30;5.85;;;1.75;;
38693;SDS011;24447;43.460;25.744;2022-07-19T13:58:57;3.92;;;1.80;;
38693;SDS011;24447;43.460;25.744;2022-07-19T14:01:26;4.45;;;1.58;;
38693;SDS011;24447;43.460;25.744;2022-07-19T14:03:52;4.93;;;1.60;;
38693;SDS011;24447;43.460;25.744;2022-07-19T14:06:18;2.90;;;1.70;;
38693;SDS011;24447;43.460;25.744;2022-07-19T14:08:44;3.03;;;1.80;;
38693;SDS011;24447;43.460;25.744;2022-07-19T14:11:10;6.60;;;1.83;;
38693;SDS011;24447;43.460;25.744;2022-07-19T14:13:37;5.63;;;2.70;;
38693;SDS011;24447;43.460;25.744;2022-07-19T14:16:03;3.92;;;1.73;;
38693;SDS011;24447;43.460;25.744;2022-07-19T14:18:30;1.98;;;1.58;;
38693;SDS011;24447;43.460;25.744;2022-07-19T14:20:56;2.63;;;1.77;;
38693;SDS011;24447;43.460;25.744;2022-07-19T14:23:22;4.60;;;1.60;;
38693;SDS011;24447;43.460;25.744;2022-07-19T14:25:48;5.35;;;1.92;;
38693;SDS011;24447;43.460;25.744;2022-07-19T14:28:14;3.20;;;1.70;;
38693;SDS011;24447;43.460;25.744;2022-07-19T14:30:41;13.20;;;2.10;;
38693;SDS011;24447;43.460;25.744;2022-07-19T14:33:08;3.05;;;1.58;;
38693;SDS011;24447;43.460;25.744;2022-07-19T14:35:34;7.85;;;1.85;;
38693;SDS011;24447;43.460;25.744;2022-07-19T14:38:00;3.53;;;1.73;;
38693;SDS011;24447;43.460;25.744;2022-07-19T14:40:26;2.78;;;2.05;;
38693;SDS011;24447;43.460;25.744;2022-07-19T14:42:52;4.65;;;1.95;;
38693;SDS011;24447;43.460;25.744;2022-07-19T14:45:18;3.10;;;2.05;;
38693;SDS011;24447;43.460;25.744;2022-07-19T14:47:44;4.95;;;1.80;;
38693;SDS011;24447;43.460;25.744;2022-07-19T14:50:10;6.72;;;2.15;;
38693;SDS011;24447;43.460;25.744;2022-07-19T14:52:37;4.82;;;2.08;;
38693;SDS011;24447;43.460;25.744;2022-07-19T14:55:04;7.32;;;3.40;;
38693;SDS011;24447;43.460;25.744;2022-07-19T14:57:32;2.85;;;1.60;;
38693;SDS011;24447;43.460;25.744;2022-07-19T14:59:58;3.13;;;1.83;;
38693;SDS011;24447;43.460;25.744;2022-07-19T15:02:24;4.00;;;1.52;;
38693;SDS011;24447;43.460;25.744;2022-07-19T15:04:50;4.80;;;2.25;;
38693;SDS011;24447;43.460;25.744;2022-07-19T15:07:16;5.47;;;2.58;;
38693;SDS011;24447;43.460;25.744;2022-07-19T15:09:43;8.25;;;2.60;;
38693;SDS011;24447;43.460;25.744;2022-07-19T15:12:09;7.30;;;2.95;;
38693;SDS011;24447;43.460;25.744;2022-07-19T15:14:35;6.90;;;2.28;;
38693;SDS011;24447;43.460;25.744;2022-07-19T15:17:02;20.33;;;11.02;;